sensor_id;sensor_type;location;lat;lon;timestamp;pressure;altitude;pressure_sealevel;temperature;humidity
62928;BME280;51070;52.236;-0.892;2023-07-09T00:01:55;100846.50;;;19.24;81.61
62928;BME280;51070;52.236;-0.892;2023-07-09T00:04:21;100851.95;;;19.21;81.56
62928;BME280;51070;52.236;-0.892;2023-07-09T00:06:46;100853.88;;;19.17;81.68
62928;BME280;51070;52.236;-0.892;2023-07-09T00:09:17;100850.55;;;19.12;81.91
62928;BME280;51070;52.236;-0.892;2023-07-09T00:11:44;100855.29;;;19.07;81.84
62928;BME280;51070;52.236;-0.892;2023-07-09T00:14:12;100855.98;;;18.99;82.28
62928;BME280;51070;52.236;-0.892;2023-07-09T00:16:38;100853.36;;;18.94;82.64
62928;BME280;51070;52.236;-0.892;2023-07-09T00:19:09;100849.33;;;18.92;82.71
62928;BME280;51070;52.236;-0.892;2023-07-09T00:21:36;100854.05;;;18.91;83.07
62928;BME280;51070;52.236;-0.892;2023-07-09T00:24:02;100859.12;;;18.90;83.09
62928;BME280;51070;52.236;-0.892;2023-07-09T00:26:33;100856.69;;;18.89;83.34
62928;BME280;51070;52.236;-0.892;2023-07-09T00:28:59;100854.23;;;18.92;83.45
62928;BME280;51070;52.236;-0.892;2023-07-09T00:31:25;100850.02;;;18.92;83.35
62928;BME280;51070;52.236;-0.892;2023-07-09T00:33:51;100849.86;;;18.93;83.60
62928;BME280;51070;52.236;-0.892;2023-07-09T00:36:28;100847.92;;;18.91;83.21
62928;BME280;51070;52.236;-0.892;2023-07-09T00:38:54;100844.77;;;18.85;83.67
62928;BME280;51070;52.236;-0.892;2023-07-09T00:41:22;100849.15;;;18.79;83.72
62928;BME280;51070;52.236;-0.892;2023-07-09T00:43:49;100844.77;;;18.73;84.01
62928;BME280;51070;52.236;-0.892;2023-07-09T00:49:08;100849.13;;;18.69;84.24
62928;BME280;51070;52.236;-0.892;2023-07-09T00:51:38;100848.27;;;18.67;84.30
62928;BME280;51070;52.236;-0.892;2023-07-09T00:54:28;100850.54;;;18.65;84.76
62928;BME280;51070;52.236;-0.892;2023-07-09T00:57:05;100854.05;;;18.66;84.56
62928;BME280;51070;52.236;-0.892;2023-07-09T00:59:34;100858.94;;;18.66;84.70
62928;BME280;51070;52.236;-0.892;2023-07-09T01:02:00;100849.48;;;18.67;84.70
62928;BME280;51070;52.236;-0.892;2023-07-09T01:04:26;100857.19;;;18.69;84.61
62928;BME280;51070;52.236;-0.892;2023-07-09T01:06:54;100863.48;;;18.67;84.29
62928;BME280;51070;52.236;-0.892;2023-07-09T01:09:21;100863.31;;;18.61;84.67
62928;BME280;51070;52.236;-0.892;2023-07-09T01:11:47;100864.89;;;18.56;84.96
62928;BME280;51070;52.236;-0.892;2023-07-09T01:14:15;100863.60;;;18.52;85.14
62928;BME280;51070;52.236;-0.892;2023-07-09T01:16:58;100863.43;;;18.49;85.04
62928;BME280;51070;52.236;-0.892;2023-07-09T01:19:38;100870.59;;;18.49;85.19
62928;BME280;51070;52.236;-0.892;2023-07-09T01:22:13;100869.38;;;18.48;85.36
62928;BME280;51070;52.236;-0.892;2023-07-09T01:25:01;100869.90;;;18.46;85.03
62928;BME280;51070;52.236;-0.892;2023-07-09T01:27:43;100869.70;;;18.40;85.31
62928;BME280;51070;52.236;-0.892;2023-07-09T01:30:17;100870.56;;;18.37;85.78
62928;BME280;51070;52.236;-0.892;2023-07-09T01:32:51;100871.24;;;18.35;85.88
62928;BME280;51070;52.236;-0.892;2023-07-09T01:35:19;100875.80;;;18.35;85.92
62928;BME280;51070;52.236;-0.892;2023-07-09T01:37:45;100879.48;;;18.32;85.75
62928;BME280;51070;52.236;-0.892;2023-07-09T01:40:16;100872.81;;;18.25;85.84
62928;BME280;51070;52.236;-0.892;2023-07-09T01:42:42;100877.35;;;18.22;86.05
62928;BME280;51070;52.236;-0.892;2023-07-09T01:45:09;100872.96;;;18.19;86.29
62928;BME280;51070;52.236;-0.892;2023-07-09T01:47:37;100873.66;;;18.20;86.43
62928;BME280;51070;52.236;-0.892;2023-07-09T01:50:04;100875.77;;;18.19;86.36
62928;BME280;51070;52.236;-0.892;2023-07-09T01:52:33;100870.86;;;18.18;86.87
62928;BME280;51070;52.236;-0.892;2023-07-09T01:54:59;100865.61;;;18.18;86.56
62928;BME280;51070;52.236;-0.892;2023-07-09T01:57:28;100866.31;;;18.14;86.33
62928;BME280;51070;52.236;-0.892;2023-07-09T02:00:06;100871.34;;;18.06;87.07
62928;BME280;51070;52.236;-0.892;2023-07-09T02:02:34;100871.11;;;17.93;88.17
62928;BME280;51070;52.236;-0.892;2023-07-09T02:05:01;100868.42;;;17.81;88.46
62928;BME280;51070;52.236;-0.892;2023-07-09T02:07:27;100867.70;;;17.72;89.18
62928;BME280;51070;52.236;-0.892;2023-07-09T02:09:53;100867.30;;;17.66;89.50
62928;BME280;51070;52.236;-0.892;2023-07-09T02:12:19;100867.77;;;17.60;89.84
62928;BME280;51070;52.236;-0.892;2023-07-09T02:14:45;100870.86;;;17.54;89.90
62928;BME280;51070;52.236;-0.892;2023-07-09T02:17:12;100872.75;;;17.48;89.89
62928;BME280;51070;52.236;-0.892;2023-07-09T02:19:38;100867.30;;;17.45;90.24
62928;BME280;51070;52.236;-0.892;2023-07-09T02:22:05;100867.16;;;17.47;90.69
62928;BME280;51070;52.236;-0.892;2023-07-09T02:24:31;100864.38;;;17.51;90.39
62928;BME280;51070;52.236;-0.892;2023-07-09T02:26:59;100861.61;;;17.55;90.17
62928;BME280;51070;52.236;-0.892;2023-07-09T02:29:26;100863.02;;;17.57;89.55
62928;BME280;51070;52.236;-0.892;2023-07-09T02:31:54;100867.92;;;17.57;89.60
62928;BME280;51070;52.236;-0.892;2023-07-09T02:34:20;100870.16;;;17.55;89.61
62928;BME280;51070;52.236;-0.892;2023-07-09T02:36:46;100870.52;;;17.54;89.54
62928;BME280;51070;52.236;-0.892;2023-07-09T02:39:13;100874.15;;;17.48;89.43
62928;BME280;51070;52.236;-0.892;2023-07-09T02:41:40;100872.72;;;17.43;89.72
62928;BME280;51070;52.236;-0.892;2023-07-09T02:44:06;100873.91;;;17.38;89.72
62928;BME280;51070;52.236;-0.892;2023-07-09T02:46:32;100872.34;;;17.37;90.08
62928;BME280;51070;52.236;-0.892;2023-07-09T02:48:58;100872.33;;;17.36;89.70
62928;BME280;51070;52.236;-0.892;2023-07-09T02:51:24;100870.21;;;17.34;89.73
62928;BME280;51070;52.236;-0.892;2023-07-09T02:53:53;100870.68;;;17.28;89.90
62928;BME280;51070;52.236;-0.892;2023-07-09T02:56:19;100875.73;;;17.24;90.03
62928;BME280;51070;52.236;-0.892;2023-07-09T02:58:44;100878.31;;;17.19;90.11
62928;BME280;51070;52.236;-0.892;2023-07-09T03:01:09;100878.11;;;17.15;90.31
62928;BME280;51070;52.236;-0.892;2023-07-09T03:03:35;100889.08;;;17.11;90.63
62928;BME280;51070;52.236;-0.892;2023-07-09T03:06:00;100880.67;;;17.08;90.64
62928;BME280;51070;52.236;-0.892;2023-07-09T03:08:26;100882.03;;;17.03;90.71
62928;BME280;51070;52.236;-0.892;2023-07-09T03:10:51;100893.36;;;17.00;90.98
62928;BME280;51070;52.236;-0.892;2023-07-09T03:13:16;100894.74;;;16.99;90.74
62928;BME280;51070;52.236;-0.892;2023-07-09T03:15:42;100900.13;;;16.98;90.88
62928;BME280;51070;52.236;-0.892;2023-07-09T03:18:07;100891.21;;;16.97;90.81
62928;BME280;51070;52.236;-0.892;2023-07-09T03:20:32;100886.16;;;16.98;90.79
62928;BME280;51070;52.236;-0.892;2023-07-09T03:22:58;100880.58;;;16.98;90.54
62928;BME280;51070;52.236;-0.892;2023-07-09T03:25:23;100879.70;;;16.98;90.76
62928;BME280;51070;52.236;-0.892;2023-07-09T03:27:49;100886.03;;;17.00;90.48
62928;BME280;51070;52.236;-0.892;2023-07-09T03:30:14;100898.06;;;17.00;90.17
62928;BME280;51070;52.236;-0.892;2023-07-09T03:32:40;100903.48;;;16.99;90.10
62928;BME280;51070;52.236;-0.892;2023-07-09T03:35:05;100898.89;;;16.95;89.85
62928;BME280;51070;52.236;-0.892;2023-07-09T03:37:31;100897.27;;;16.91;90.29
62928;BME280;51070;52.236;-0.892;2023-07-09T03:39:56;100897.27;;;16.91;90.67
62928;BME280;51070;52.236;-0.892;2023-07-09T03:42:22;100904.79;;;16.92;90.19
62928;BME280;51070;52.236;-0.892;2023-07-09T03:44:47;100909.33;;;16.92;90.16
62928;BME280;51070;52.236;-0.892;2023-07-09T03:47:13;100916.31;;;16.93;90.07
62928;BME280;51070;52.236;-0.892;2023-07-09T03:49:38;100915.11;;;16.93;90.05
62928;BME280;51070;52.236;-0.892;2023-07-09T03:52:06;100914.61;;;16.96;90.33
62928;BME280;51070;52.236;-0.892;2023-07-09T03:54:32;100904.48;;;16.96;89.77
62928;BME280;51070;52.236;-0.892;2023-07-09T03:56:58;100907.43;;;16.95;90.08
62928;BME280;51070;52.236;-0.892;2023-07-09T03:59:23;100908.48;;;16.94;89.86
62928;BME280;51070;52.236;-0.892;2023-07-09T04:01:49;100913.20;;;16.94;89.97
62928;BME280;51070;52.236;-0.892;2023-07-09T04:04:14;100902.01;;;16.92;89.46
62928;BME280;51070;52.236;-0.892;2023-07-09T04:06:40;100904.95;;;16.91;89.63
62928;BME280;51070;52.236;-0.892;2023-07-09T04:09:05;100906.86;;;16.89;89.48
62928;BME280;51070;52.236;-0.892;2023-07-09T04:11:31;100902.29;;;16.86;89.51
62928;BME280;51070;52.236;-0.892;2023-07-09T04:13:56;100911.70;;;16.85;89.86
62928;BME280;51070;52.236;-0.892;2023-07-09T04:16:21;100914.18;;;16.88;89.94
62928;BME280;51070;52.236;-0.892;2023-07-09T04:18:47;100913.33;;;16.91;89.79
62928;BME280;51070;52.236;-0.892;2023-07-09T04:21:12;100918.61;;;16.96;89.66
62928;BME280;51070;52.236;-0.892;2023-07-09T04:23:38;100914.98;;;17.01;89.66
62928;BME280;51070;52.236;-0.892;2023-07-09T04:26:03;100919.23;;;17.07;89.22
62928;BME280;51070;52.236;-0.892;2023-07-09T04:28:30;100930.79;;;17.09;88.61
62928;BME280;51070;52.236;-0.892;2023-07-09T04:30:56;100930.95;;;17.09;88.61
62928;BME280;51070;52.236;-0.892;2023-07-09T04:33:22;100928.14;;;17.07;88.70
62928;BME280;51070;52.236;-0.892;2023-07-09T04:35:48;100924.83;;;17.06;88.25
62928;BME280;51070;52.236;-0.892;2023-07-09T04:38:15;100923.57;;;17.03;88.59
62928;BME280;51070;52.236;-0.892;2023-07-09T04:40:41;100930.05;;;17.04;88.67
62928;BME280;51070;52.236;-0.892;2023-07-09T04:43:06;100927.96;;;17.06;88.79
62928;BME280;51070;52.236;-0.892;2023-07-09T04:45:32;100926.42;;;17.08;88.74
62928;BME280;51070;52.236;-0.892;2023-07-09T04:47:57;100921.77;;;17.15;88.75
62928;BME280;51070;52.236;-0.892;2023-07-09T04:50:22;100918.69;;;17.24;88.56
62928;BME280;51070;52.236;-0.892;2023-07-09T04:52:48;100921.38;;;17.32;88.47
62928;BME280;51070;52.236;-0.892;2023-07-09T04:55:13;100923.16;;;17.39;87.61
62928;BME280;51070;52.236;-0.892;2023-07-09T04:57:39;100925.30;;;17.43;87.14
62928;BME280;51070;52.236;-0.892;2023-07-09T05:00:05;100923.04;;;17.45;86.90
62928;BME280;51070;52.236;-0.892;2023-07-09T05:02:33;100917.09;;;17.45;86.81
62928;BME280;51070;52.236;-0.892;2023-07-09T05:04:59;100915.52;;;17.43;86.34
62928;BME280;51070;52.236;-0.892;2023-07-09T05:07:25;100915.64;;;17.37;86.37
62928;BME280;51070;52.236;-0.892;2023-07-09T05:09:50;100915.74;;;17.27;86.46
62928;BME280;51070;52.236;-0.892;2023-07-09T05:12:15;100914.83;;;17.22;86.68
62928;BME280;51070;52.236;-0.892;2023-07-09T05:14:41;100925.07;;;17.14;86.95
62928;BME280;51070;52.236;-0.892;2023-07-09T05:17:07;100923.25;;;17.05;87.33
62928;BME280;51070;52.236;-0.892;2023-07-09T05:19:32;100925.46;;;17.00;87.90
62928;BME280;51070;52.236;-0.892;2023-07-09T05:21:58;100930.33;;;16.97;88.01
62928;BME280;51070;52.236;-0.892;2023-07-09T05:24:24;100935.38;;;16.96;88.11
62928;BME280;51070;52.236;-0.892;2023-07-09T05:26:49;100940.08;;;16.94;88.16
62928;BME280;51070;52.236;-0.892;2023-07-09T05:29:15;100945.30;;;16.93;88.34
62928;BME280;51070;52.236;-0.892;2023-07-09T05:31:40;100949.62;;;16.90;88.53
62928;BME280;51070;52.236;-0.892;2023-07-09T05:34:08;100948.05;;;16.88;88.80
62928;BME280;51070;52.236;-0.892;2023-07-09T05:36:34;100948.01;;;16.85;89.07
62928;BME280;51070;52.236;-0.892;2023-07-09T05:38:59;100944.98;;;16.79;89.22
62928;BME280;51070;52.236;-0.892;2023-07-09T05:41:25;100939.35;;;16.74;89.41
62928;BME280;51070;52.236;-0.892;2023-07-09T05:43:51;100934.80;;;16.72;89.80
62928;BME280;51070;52.236;-0.892;2023-07-09T05:46:17;100938.48;;;16.75;89.75
62928;BME280;51070;52.236;-0.892;2023-07-09T05:48:43;100940.77;;;16.76;89.90
62928;BME280;51070;52.236;-0.892;2023-07-09T05:51:09;100943.23;;;16.79;90.24
62928;BME280;51070;52.236;-0.892;2023-07-09T05:53:35;100943.10;;;16.83;90.25
62928;BME280;51070;52.236;-0.892;2023-07-09T05:56:01;100936.02;;;16.91;89.95
62928;BME280;51070;52.236;-0.892;2023-07-09T05:58:26;100934.59;;;17.05;90.00
62928;BME280;51070;52.236;-0.892;2023-07-09T06:00:53;100940.65;;;17.19;90.01
62928;BME280;51070;52.236;-0.892;2023-07-09T06:03:20;100943.23;;;17.35;89.54
62928;BME280;51070;52.236;-0.892;2023-07-09T06:05:47;100941.60;;;17.49;88.50
62928;BME280;51070;52.236;-0.892;2023-07-09T06:08:15;100947.41;;;17.54;86.75
62928;BME280;51070;52.236;-0.892;2023-07-09T06:10:50;100956.29;;;17.51;86.81
62928;BME280;51070;52.236;-0.892;2023-07-09T06:13:16;100965.02;;;17.50;86.81
62928;BME280;51070;52.236;-0.892;2023-07-09T06:15:41;100967.84;;;17.53;86.72
62928;BME280;51070;52.236;-0.892;2023-07-09T06:18:06;100969.80;;;17.58;86.19
62928;BME280;51070;52.236;-0.892;2023-07-09T06:20:32;100965.15;;;17.64;86.29
62928;BME280;51070;52.236;-0.892;2023-07-09T06:22:57;100970.63;;;17.72;86.02
62928;BME280;51070;52.236;-0.892;2023-07-09T06:25:22;100977.50;;;17.81;85.37
62928;BME280;51070;52.236;-0.892;2023-07-09T06:27:48;100982.23;;;17.82;84.94
62928;BME280;51070;52.236;-0.892;2023-07-09T06:30:13;100982.40;;;17.80;85.10
62928;BME280;51070;52.236;-0.892;2023-07-09T06:32:39;100979.63;;;17.84;85.03
62928;BME280;51070;52.236;-0.892;2023-07-09T06:35:04;100982.79;;;17.86;84.65
62928;BME280;51070;52.236;-0.892;2023-07-09T06:37:30;100986.48;;;17.91;84.78
62928;BME280;51070;52.236;-0.892;2023-07-09T06:39:55;100996.66;;;17.97;84.44
62928;BME280;51070;52.236;-0.892;2023-07-09T06:42:20;101000.90;;;18.02;84.61
62928;BME280;51070;52.236;-0.892;2023-07-09T06:44:46;101003.74;;;18.10;83.84
62928;BME280;51070;52.236;-0.892;2023-07-09T06:47:11;101014.42;;;18.14;83.15
62928;BME280;51070;52.236;-0.892;2023-07-09T06:49:37;101016.02;;;18.16;82.96
62928;BME280;51070;52.236;-0.892;2023-07-09T06:52:03;101019.17;;;18.16;82.86
62928;BME280;51070;52.236;-0.892;2023-07-09T06:54:28;101009.02;;;18.16;82.79
62928;BME280;51070;52.236;-0.892;2023-07-09T06:56:54;101008.18;;;18.21;82.73
62928;BME280;51070;52.236;-0.892;2023-07-09T06:59:19;101008.92;;;18.27;82.05
62928;BME280;51070;52.236;-0.892;2023-07-09T07:01:44;101009.10;;;18.29;81.82
62928;BME280;51070;52.236;-0.892;2023-07-09T07:04:10;101018.21;;;18.33;81.60
62928;BME280;51070;52.236;-0.892;2023-07-09T07:06:35;101029.23;;;18.32;81.10
62928;BME280;51070;52.236;-0.892;2023-07-09T07:09:00;101030.59;;;18.26;81.37
62928;BME280;51070;52.236;-0.892;2023-07-09T07:11:26;101026.55;;;18.21;81.47
62928;BME280;51070;52.236;-0.892;2023-07-09T07:13:55;101025.66;;;18.20;81.50
62928;BME280;51070;52.236;-0.892;2023-07-09T07:16:20;101030.02;;;18.20;81.62
62928;BME280;51070;52.236;-0.892;2023-07-09T07:18:46;101034.06;;;18.20;81.42
62928;BME280;51070;52.236;-0.892;2023-07-09T07:21:11;101036.52;;;18.19;81.90
62928;BME280;51070;52.236;-0.892;2023-07-09T07:23:36;101040.90;;;18.22;81.75
62928;BME280;51070;52.236;-0.892;2023-07-09T07:26:02;101043.86;;;18.21;81.54
62928;BME280;51070;52.236;-0.892;2023-07-09T07:28:29;101036.85;;;18.20;81.94
62928;BME280;51070;52.236;-0.892;2023-07-09T07:31:03;101038.42;;;18.19;81.93
62928;BME280;51070;52.236;-0.892;2023-07-09T07:33:30;101039.12;;;18.19;81.90
62928;BME280;51070;52.236;-0.892;2023-07-09T07:35:56;101044.38;;;18.18;81.99
62928;BME280;51070;52.236;-0.892;2023-07-09T07:38:22;101051.56;;;18.21;82.31
62928;BME280;51070;52.236;-0.892;2023-07-09T07:40:47;101051.75;;;18.23;81.88
62928;BME280;51070;52.236;-0.892;2023-07-09T07:43:13;101046.84;;;18.22;82.03
62928;BME280;51070;52.236;-0.892;2023-07-09T07:45:42;101039.48;;;18.20;82.01
62928;BME280;51070;52.236;-0.892;2023-07-09T07:48:07;101031.79;;;18.20;82.28
62928;BME280;51070;52.236;-0.892;2023-07-09T07:50:33;101023.26;;;18.28;82.54
62928;BME280;51070;52.236;-0.892;2023-07-09T07:52:58;101032.93;;;18.36;82.03
62928;BME280;51070;52.236;-0.892;2023-07-09T07:55:23;101038.03;;;18.39;81.86
62928;BME280;51070;52.236;-0.892;2023-07-09T07:57:49;101042.58;;;18.39;82.23
62928;BME280;51070;52.236;-0.892;2023-07-09T08:00:15;101051.31;;;18.38;82.00
62928;BME280;51070;52.236;-0.892;2023-07-09T08:02:41;101060.56;;;18.35;81.76
62928;BME280;51070;52.236;-0.892;2023-07-09T08:05:06;101065.27;;;18.31;82.12
62928;BME280;51070;52.236;-0.892;2023-07-09T08:07:32;101073.98;;;18.26;82.42
62928;BME280;51070;52.236;-0.892;2023-07-09T08:09:57;101065.36;;;18.20;82.64
62928;BME280;51070;52.236;-0.892;2023-07-09T08:12:23;101058.20;;;18.20;82.86
62928;BME280;51070;52.236;-0.892;2023-07-09T08:14:48;101059.81;;;18.25;82.89
62928;BME280;51070;52.236;-0.892;2023-07-09T08:17:13;101049.38;;;18.35;83.32
62928;BME280;51070;52.236;-0.892;2023-07-09T08:19:51;101026.16;;;18.48;82.76
62928;BME280;51070;52.236;-0.892;2023-07-09T08:22:18;101013.46;;;18.58;82.84
62928;BME280;51070;52.236;-0.892;2023-07-09T08:24:46;100992.50;;;18.67;82.38
62928;BME280;51070;52.236;-0.892;2023-07-09T08:27:11;100968.67;;;18.69;81.41
62928;BME280;51070;52.236;-0.892;2023-07-09T08:29:37;100954.69;;;18.70;81.46
62928;BME280;51070;52.236;-0.892;2023-07-09T08:32:03;100974.84;;;18.70;80.86
62928;BME280;51070;52.236;-0.892;2023-07-09T08:34:29;101030.45;;;18.59;80.45
62928;BME280;51070;52.236;-0.892;2023-07-09T08:36:54;101036.54;;;18.54;81.42
62928;BME280;51070;52.236;-0.892;2023-07-09T08:39:20;101019.18;;;18.51;81.97
62928;BME280;51070;52.236;-0.892;2023-07-09T08:41:56;101004.35;;;18.55;82.12
62928;BME280;51070;52.236;-0.892;2023-07-09T08:47:10;100985.64;;;18.55;82.45
62928;BME280;51070;52.236;-0.892;2023-07-09T08:49:44;100998.77;;;18.59;82.76
62928;BME280;51070;52.236;-0.892;2023-07-09T08:52:33;101004.04;;;18.60;82.31
62928;BME280;51070;52.236;-0.892;2023-07-09T08:55:06;101012.25;;;18.59;82.42
62928;BME280;51070;52.236;-0.892;2023-07-09T08:57:45;101017.27;;;18.53;82.69
62928;BME280;51070;52.236;-0.892;2023-07-09T09:00:26;101012.89;;;18.51;82.99
62928;BME280;51070;52.236;-0.892;2023-07-09T09:02:58;101001.15;;;18.52;82.71
62928;BME280;51070;52.236;-0.892;2023-07-09T09:05:25;100993.33;;;18.58;82.11
62928;BME280;51070;52.236;-0.892;2023-07-09T09:07:57;100993.90;;;18.69;81.26
62928;BME280;51070;52.236;-0.892;2023-07-09T09:11:18;101006.92;;;18.87;80.02
62928;BME280;51070;52.236;-0.892;2023-07-09T09:13:24;101017.48;;;19.06;78.75
62928;BME280;51070;52.236;-0.892;2023-07-09T09:15:50;101019.42;;;19.21;77.50
62928;BME280;51070;52.236;-0.892;2023-07-09T09:18:29;101021.71;;;19.30;77.51
62928;BME280;51070;52.236;-0.892;2023-07-09T09:21:26;101017.00;;;19.39;77.08
62928;BME280;51070;52.236;-0.892;2023-07-09T09:23:57;101013.17;;;19.53;77.12
62928;BME280;51070;52.236;-0.892;2023-07-09T09:26:34;101013.17;;;19.75;75.61
62928;BME280;51070;52.236;-0.892;2023-07-09T09:29:14;101011.90;;;20.04;73.05
62928;BME280;51070;52.236;-0.892;2023-07-09T09:31:41;101008.47;;;20.50;69.17
62928;BME280;51070;52.236;-0.892;2023-07-09T09:34:18;101007.86;;;21.03;67.33
62928;BME280;51070;52.236;-0.892;2023-07-09T09:36:44;101013.37;;;21.24;63.94
62928;BME280;51070;52.236;-0.892;2023-07-09T09:39:09;101018.11;;;21.26;62.57
62928;BME280;51070;52.236;-0.892;2023-07-09T09:41:36;101018.19;;;21.38;63.31
62928;BME280;51070;52.236;-0.892;2023-07-09T09:44:03;101019.38;;;21.66;61.91
62928;BME280;51070;52.236;-0.892;2023-07-09T09:46:31;101020.45;;;21.64;59.76
62928;BME280;51070;52.236;-0.892;2023-07-09T09:49:01;101020.21;;;21.50;57.53
62928;BME280;51070;52.236;-0.892;2023-07-09T09:51:27;101021.87;;;21.41;58.87
62928;BME280;51070;52.236;-0.892;2023-07-09T09:53:58;101029.80;;;21.37;58.84
62928;BME280;51070;52.236;-0.892;2023-07-09T09:56:33;101034.48;;;21.24;57.47
62928;BME280;51070;52.236;-0.892;2023-07-09T09:58:59;101045.60;;;21.09;57.02
62928;BME280;51070;52.236;-0.892;2023-07-09T10:01:35;101051.45;;;21.00;58.23
62928;BME280;51070;52.236;-0.892;2023-07-09T10:04:02;101052.48;;;21.01;57.79
62928;BME280;51070;52.236;-0.892;2023-07-09T10:08:59;101058.77;;;21.10;58.79
62928;BME280;51070;52.236;-0.892;2023-07-09T10:16:44;101054.16;;;21.71;57.93
62928;BME280;51070;52.236;-0.892;2023-07-09T10:19:35;101060.10;;;22.17;56.62
62928;BME280;51070;52.236;-0.892;2023-07-09T10:25:10;101056.27;;;22.78;53.18
62928;BME280;51070;52.236;-0.892;2023-07-09T10:30:49;101052.30;;;22.85;52.29
62928;BME280;51070;52.236;-0.892;2023-07-09T10:33:54;101046.52;;;23.09;51.79
62928;BME280;51070;52.236;-0.892;2023-07-09T10:39:27;101051.42;;;24.21;48.70
62928;BME280;51070;52.236;-0.892;2023-07-09T10:41:57;101042.55;;;24.77;46.33
62928;BME280;51070;52.236;-0.892;2023-07-09T10:44:37;101044.42;;;25.36;44.70
62928;BME280;51070;52.236;-0.892;2023-07-09T10:47:10;101043.19;;;25.51;42.91
62928;BME280;51070;52.236;-0.892;2023-07-09T10:49:40;101041.28;;;25.65;41.77
62928;BME280;51070;52.236;-0.892;2023-07-09T10:52:27;101041.33;;;25.84;40.52
62928;BME280;51070;52.236;-0.892;2023-07-09T10:55:32;101030.40;;;26.42;41.67
62928;BME280;51070;52.236;-0.892;2023-07-09T10:57:57;101027.60;;;26.90;41.78
62928;BME280;51070;52.236;-0.892;2023-07-09T11:00:36;101034.57;;;27.22;40.53
62928;BME280;51070;52.236;-0.892;2023-07-09T11:05:55;101037.09;;;27.76;36.89
62928;BME280;51070;52.236;-0.892;2023-07-09T11:08:39;101035.90;;;27.74;38.32
62928;BME280;51070;52.236;-0.892;2023-07-09T11:11:17;101030.61;;;27.84;37.98
62928;BME280;51070;52.236;-0.892;2023-07-09T11:13:50;101028.95;;;27.75;36.05
62928;BME280;51070;52.236;-0.892;2023-07-09T11:16:30;101031.43;;;27.60;37.03
62928;BME280;51070;52.236;-0.892;2023-07-09T11:19:03;101033.63;;;27.74;36.57
62928;BME280;51070;52.236;-0.892;2023-07-09T11:21:29;101031.06;;;27.60;35.22
62928;BME280;51070;52.236;-0.892;2023-07-09T11:23:57;101028.42;;;27.42;34.92
62928;BME280;51070;52.236;-0.892;2023-07-09T11:34:09;101022.27;;;26.53;35.83
62928;BME280;51070;52.236;-0.892;2023-07-09T11:37:01;101028.08;;;26.30;35.88
62928;BME280;51070;52.236;-0.892;2023-07-09T11:42:01;101028.01;;;26.19;37.09
62928;BME280;51070;52.236;-0.892;2023-07-09T11:44:32;101034.61;;;26.31;36.40
62928;BME280;51070;52.236;-0.892;2023-07-09T11:47:21;101030.95;;;26.15;36.42
62928;BME280;51070;52.236;-0.892;2023-07-09T11:50:27;101018.86;;;26.10;36.89
62928;BME280;51070;52.236;-0.892;2023-07-09T11:55:46;101012.63;;;26.12;36.78
62928;BME280;51070;52.236;-0.892;2023-07-09T11:58:15;101001.48;;;26.24;36.66
62928;BME280;51070;52.236;-0.892;2023-07-09T12:00:47;101000.20;;;26.39;35.58
62928;BME280;51070;52.236;-0.892;2023-07-09T12:03:24;101000.79;;;26.37;35.17
62928;BME280;51070;52.236;-0.892;2023-07-09T12:06:02;100990.20;;;26.65;35.46
62928;BME280;51070;52.236;-0.892;2023-07-09T12:08:36;100995.30;;;26.96;34.51
62928;BME280;51070;52.236;-0.892;2023-07-09T12:11:03;100999.39;;;27.02;35.03
62928;BME280;51070;52.236;-0.892;2023-07-09T12:13:28;100997.52;;;27.05;35.03
62928;BME280;51070;52.236;-0.892;2023-07-09T12:15:54;100989.10;;;26.90;34.43
62928;BME280;51070;52.236;-0.892;2023-07-09T12:18:19;100982.66;;;26.80;35.35
62928;BME280;51070;52.236;-0.892;2023-07-09T12:20:49;100976.23;;;26.76;35.49
62928;BME280;51070;52.236;-0.892;2023-07-09T12:23:40;100971.41;;;26.77;36.00
62928;BME280;51070;52.236;-0.892;2023-07-09T12:26:05;100976.66;;;26.67;35.43
62928;BME280;51070;52.236;-0.892;2023-07-09T12:28:32;100969.77;;;26.61;36.06
62928;BME280;51070;52.236;-0.892;2023-07-09T12:30:57;100978.92;;;26.69;36.25
62928;BME280;51070;52.236;-0.892;2023-07-09T12:33:25;100982.29;;;26.75;36.11
62928;BME280;51070;52.236;-0.892;2023-07-09T12:36:03;100982.27;;;26.64;35.93
62928;BME280;51070;52.236;-0.892;2023-07-09T12:38:41;100974.98;;;26.53;36.76
62928;BME280;51070;52.236;-0.892;2023-07-09T12:41:14;100977.90;;;26.44;37.03
62928;BME280;51070;52.236;-0.892;2023-07-09T12:43:42;100973.52;;;26.41;37.47
62928;BME280;51070;52.236;-0.892;2023-07-09T12:46:08;100968.65;;;26.69;36.67
62928;BME280;51070;52.236;-0.892;2023-07-09T12:48:33;100968.14;;;26.86;36.04
62928;BME280;51070;52.236;-0.892;2023-07-09T12:50:59;100961.59;;;26.85;36.74
62928;BME280;51070;52.236;-0.892;2023-07-09T12:53:26;100964.27;;;26.91;35.76
62928;BME280;51070;52.236;-0.892;2023-07-09T12:55:56;100952.95;;;26.84;35.70
62928;BME280;51070;52.236;-0.892;2023-07-09T12:58:29;100949.47;;;26.64;35.98
62928;BME280;51070;52.236;-0.892;2023-07-09T13:00:56;100946.80;;;26.58;36.51
62928;BME280;51070;52.236;-0.892;2023-07-09T13:03:28;100947.94;;;26.62;36.52
62928;BME280;51070;52.236;-0.892;2023-07-09T13:05:57;100945.32;;;26.49;36.33
62928;BME280;51070;52.236;-0.892;2023-07-09T13:08:24;100938.72;;;26.39;36.88
62928;BME280;51070;52.236;-0.892;2023-07-09T13:10:50;100934.51;;;26.31;37.17
62928;BME280;51070;52.236;-0.892;2023-07-09T13:13:19;100937.27;;;26.27;37.40
62928;BME280;51070;52.236;-0.892;2023-07-09T13:15:52;100941.00;;;26.08;37.36
62928;BME280;51070;52.236;-0.892;2023-07-09T13:18:23;100943.98;;;25.83;37.96
62928;BME280;51070;52.236;-0.892;2023-07-09T13:20:48;100948.17;;;25.79;38.05
62928;BME280;51070;52.236;-0.892;2023-07-09T13:23:28;100952.46;;;25.83;38.14
62928;BME280;51070;52.236;-0.892;2023-07-09T13:25:55;100948.85;;;26.05;38.51
62928;BME280;51070;52.236;-0.892;2023-07-09T13:28:29;100949.29;;;25.96;38.09